createdAt,value
2019-04-20T18:39:28.834Z,103016.37
2019-04-20T18:43:04.446Z,103013.54
2019-04-20T18:50:17.254Z,103014.39
2019-04-20T18:53:46.792Z,103010.59
2019-04-20T18:57:23.123Z,103011.53
2019-04-20T19:00:54.019Z,103010.96
2019-04-20T19:04:27.832Z,103009.42
2019-04-20T19:08:05.038Z,103011.97
2019-04-20T19:11:35.347Z,103007.48
2019-04-20T19:15:30.276Z,103007.45
2019-04-20T19:19:00.384Z,103011.33
2019-04-20T19:22:19.629Z,103012.18
2019-04-20T19:25:54.342Z,103017.23
2019-04-20T19:29:31.780Z,103016.37
2019-04-20T19:33:14.196Z,103019.52
2019-04-20T19:36:41.308Z,103021.34
2019-04-20T19:40:17.980Z,103020.24
2019-04-20T19:43:54.841Z,103021.53
2019-04-20T19:47:36.653Z,103015.87
2019-04-20T19:51:17.181Z,103016.01
2019-04-20T19:54:46.358Z,103013.57
2019-04-20T19:58:16.053Z,103009.29
2019-04-20T20:01:39.547Z,103006.03
2019-04-20T20:05:16.173Z,103008.38
2019-04-20T20:08:55.664Z,103003.43
2019-04-20T20:12:23.303Z,102999.6
2019-04-20T20:16:01.838Z,102995.01
2019-04-20T20:19:54.092Z,102986.14
2019-04-20T20:23:05.684Z,102983.72
2019-04-20T20:26:44.198Z,102982.79
2019-04-20T20:30:22.643Z,102984.27
2019-04-20T20:34:02.771Z,102982.23
2019-04-20T20:37:33.594Z,102976.07
2019-04-20T20:41:08.596Z,102970.87
2019-04-20T20:44:44.875Z,102963.42
2019-04-20T20:48:23.971Z,102962.26
2019-04-20T20:52:06.600Z,102957.06
2019-04-20T20:55:30.579Z,102961.89
2019-04-20T20:59:03.709Z,102965.92
2019-04-20T21:02:41.871Z,102962.96
2019-04-20T21:06:07.502Z,102956.28
2019-04-20T21:09:41.770Z,102950.71
2019-04-20T21:13:14.172Z,102946.15
2019-04-20T21:16:56.874Z,102949.17
2019-04-20T21:20:44.236Z,102950.38
2019-04-20T21:24:03.781Z,102953.23
2019-04-20T21:27:32.800Z,102951.21
2019-04-20T21:31:12.175Z,102944.49
2019-04-20T21:34:42.306Z,102941.64
2019-04-20T21:38:16.806Z,102942.7
2019-04-20T21:41:57.157Z,102944.85
2019-04-20T21:45:30.506Z,102948.15
2019-04-20T21:49:12.397Z,102946.46
2019-04-20T21:52:41.221Z,102943.58
2019-04-20T21:56:10.146Z,102943.64
2019-04-20T21:59:48.466Z,102940.31
2019-04-20T22:03:18.705Z,102940.5
2019-04-20T22:06:52.021Z,102942.63
2019-04-20T22:10:29.153Z,102937.34
2019-04-20T22:14:02.101Z,102937.34
2019-04-20T22:17:35.871Z,102929.48
2019-04-20T22:21:17.351Z,102928.51
2019-04-20T22:24:57.510Z,102931.01
2019-04-20T22:28:18.076Z,102929.7
2019-04-20T22:31:58.778Z,102923.92
2019-04-20T22:35:28.129Z,102919.74
2019-04-20T22:39:03.324Z,102917.49
2019-04-20T22:42:39.972Z,102910.25
2019-04-20T22:46:10.736Z,102904.61
2019-04-20T22:49:56.564Z,102906.25
2019-04-20T22:53:34.517Z,102900.92
2019-04-20T22:57:02.976Z,102903.54
2019-04-20T23:00:39.150Z,102892.85
2019-04-20T23:04:04.094Z,102894.16
2019-04-20T23:07:36.809Z,102888.02
2019-04-20T23:11:17.709Z,102885.64
2019-04-20T23:14:44.699Z,102880.47
2019-04-20T23:18:15.981Z,102874.32
2019-04-20T23:21:55.481Z,102872.72
2019-04-20T23:25:22.932Z,102874.35
2019-04-20T23:28:57.388Z,102872.87
2019-04-20T23:32:30.035Z,102865.78
2019-04-20T23:36:04.684Z,102858.84
2019-04-20T23:39:41.411Z,102859.34
2019-04-20T23:43:18.333Z,102854.98
2019-04-20T23:46:45.334Z,102858.66
2019-04-20T23:50:36.709Z,102853.03
2019-04-20T23:54:01.871Z,102859.45
2019-04-20T23:57:26.467Z,102852.18
